Peterson, Indiana
Current Conditions -  °F | °C
As of 8:54 AM on Wednesday 22 Oct 2014 (Local Time) from KFWA Reporting Station
Scattered Clouds Scattered Clouds  
Wind Chill: 36°   Ceiling: Unl
Heat Index: 41°   Visibility: 10mi
Dew Point: 37°   Wind: 7mph
Humidity: 86%   Direction: 20°NNE
Pressure: 30.32"   Gusts: NA
Location:  40.8317°N, 84.9398°W
Report Text: KFWA 221254Z 02006KT 10SM SCT027 05/03 A3032 RMK AO2 SLP273 T00500028
Loading
Personal Weather Stations






























Interactive Weather Map
Tropical Storm Tracking
New forecast layout! Learn more

10-Day Weather Forecast

Advertisements
Track Severe Weather on mobile